Forside
METAR-TAF:

METAR-TAF

Lufthavne :

Evansville, Indiana, USA

Breddekreds: 38-02-35N, længdekreds: 087-31-13W, højde: 127 m

Aktuelle vejr

Denne rapport blev lavet for 19 minutter siden, kl. 12:54 UTC
Vind 7 kt fra østnordøst
Temperatur 9°C
Fugtighed 61%
Tryk 1015 hPa
Sigt: 16.1 km
Brudte skyer i en højde af 12000 ft

METAR: KEVV 311254Z 07007KT 10SM BKN120 09/02 A2998 RMK AO2 SLP150 T00890022

Tid: 08:13 (13:13 UTC)

Vejrudsigter

Denne rapport blev lavet for 1 time og 53 minutter siden, kl. 11:20 UTC
Foreløbig gælder fra 31 på 12 UTC til 01 på 12 UTC
Vind 6 kt fra østnordøst
Sigt: 10 km
Overskyet i en højde af 7000 ft
Fra 31 på 1500 UTC
Vind 6 kt fra nordnordøst
Sigt: 10 km
Brudte skyer i en højde af 6000 ft
Fra 31 på 1700 UTC
Vind 11 kt fra nord
Sigt: 10 km
Overskyet i en højde af 9000 ft
Fra 01 på 0100 UTC
Vind 9 kt fra nord
Sigt: 10 km
Spredte skyer i en højde af 8000 ft

TAF: KEVV 311120Z 3112/0112 06006KT P6SM OVC070 FM311500 03006KT P6SM BKN060 FM311700 36011KT P6SM OVC090 FM010100 35009KT P6SM SCT080

Vejrobservationer og prognoser fra mere end 4000 lufthavne (METAR og TAF).

De gule og røde prikker repræsenterer de meteorologiske stationer.

Flyt musen over at se navnet på stationen.

Så klik over at se vejr observationer og prognoser.

At skifte det kort: Klik på de grønne knapper med et sort kors for at zoome ind; på den grønne knap med en bindestreg for at zoome ud; eller på de grønne pile for tilstødende kort.


METAR-TAF: